x

8452951 - Potter Cove, Prudence Island, Ri (ptcr1) Weather Station

3:54 - Thu 11th Feb 2016 All times are EST. -5 hours from GMT.

  • Wind
    5mph, 8mph gusts
  • Luft Temp 28°f
  • Sea Pressure 1005.3mb
  • 8452951 - Potter Cove, Prudence Island, Ri
  • 8452951 - Potter Cove, Prudence Island, Ri

More Historic Weather Station data

Upgrade to MSW Pro to gain access to the past 30 days of data for over 8000 Wavebouys and Weather Stations around the globe.

Join Pro

Comparision Forecast

View Surf forecast
   
Do 02/11 3:54 5 8 mph 1005.3mb 28f
3:48 3 7 mph 1005.3mb 28f
3:42 5 9 mph 1005.3mb 28f
3:36 5 10 mph 1005.3mb 28f
3:30 3 7 mph 1005.2mb 28f
3:24 5 8 mph 1005.1mb 28f
3:18 3 9 mph 1005.1mb 28f
3:12 3 8 mph 1005.2mb 28f
3:06 3 7 mph 1005.2mb 28f
3:00 3 8 mph 1005.3mb 29f
2:54 8 15 mph 1005.3mb 29f
2:48 6 10 mph 1005.4mb 29f
2:42 5 9 mph 1005.4mb 28f
2:36 3 8 mph 1005.3mb 28f
2:30 5 7 mph 1005.3mb 29f
2:24 5 9 mph 1005.4mb 29f
2:18 5 8 mph 1005.5mb 29f
2:12 5 8 mph 1005.4mb 29f
2:06 3 6 mph 1005.4mb 29f
2:00 5 9 mph 1005.4mb 29f
1:54 6 10 mph 1005.4mb 29f
1:48 3 8 mph 1005.5mb 29f
1:42 3 6 mph 1005.5mb 29f
1:36 6 9 mph 1005.5mb 30f
1:30 6 9 mph 1005.5mb 30f
1:24 6 10 mph 1005.6mb 30f
1:18 6 8 mph 1005.6mb 30f
1:12 7 13 mph 1005.6mb 30f
1:06 6 9 mph 1005.5mb 30f
1:00 6 9 mph 1005.5mb 30f
12:54 6 9 mph 1005.6mb 31f
12:48 5 8 mph 1005.6mb 31f
12:42 6 9 mph 1005.6mb 31f
12:36 7 10 mph 1005.5mb 31f
12:30 8 14 mph 1005.5mb 31f
12:24 6 11 mph 1005.5mb 32f
12:18 6 11 mph 1005.5mb 32f
12:12 7 13 mph 1005.5mb 32f
12:06 6 13 mph 1005.4mb 31f
12:00 7 11 mph 1005.4mb 32f
Mi 02/10 11:54 6 9 mph 1005.5mb 32f
11:48 7 10 mph 1005.6mb 32f
11:42 6 10 mph 1005.6mb 32f
11:36 7 13 mph 1005.6mb 32f
11:30 5 10 mph 1005.6mb 32f
11:24 3 7 mph 1005.6mb 32f
11:18 8 14 mph 1005.6mb 33f
11:12 7 10 mph 1005.6mb 33f
11:06 7 11 mph 1005.6mb 33f
11:00 7 11 mph 1005.5mb 33f
10:54 8 14 mph 1005.5mb 33f
10:48 7 13 mph 1005.5mb 33f
10:42 7 11 mph 1005.4mb 33f
10:36 6 9 mph 1005.3mb 33f
10:30 7 13 mph 1005.3mb 33f
10:24 5 9 mph 1005.2mb 33f
10:18 5 9 mph 1005.2mb 33f
10:12 6 8 mph 1005.1mb 33f
10:06 6 9 mph 1005.1mb 33f
10:00  -  mph 1005mb 33f
9:54  -  mph 1004.9mb 33f
9:48 7 10 mph - 34f
9:42 7 13 mph - 34f
9:36 7 13 mph - 34f
9:30  -  mph 1004.8mb 34f
9:24  -  mph 1004.7mb 34f
9:18 8 13 mph 1004.7mb 34f
9:12 9 15 mph 1004.6mb 34f
9:06 7 11 mph 1004.6mb 34f
9:00  -  mph - 34f
8:54  -  mph - 34f
8:48  -  mph - 34f
8:42  -  mph - 34f
8:36  -  mph - 33f
8:30 6 9 mph 1004.5mb 33f
8:24 7 10 mph 1004.4mb 33f
8:18 6 9 mph 1004.4mb 33f
8:12 6 9 mph 1004.4mb 33f
8:06 6 9 mph 1004.4mb 33f
8:00 6 11 mph 1004.4mb 33f
7:54 7 10 mph 1004.4mb 33f
7:48 7 11 mph 1004.3mb 33f
7:42 6 9 mph 1004.3mb 33f
7:36 8 13 mph 1004.2mb 33f
7:30  -  mph 1004.3mb 33f
7:24  -  mph 1004.3mb 33f
7:18  -  mph 1004.3mb 33f
7:12  -  mph 1004.2mb 34f
7:06  -  mph 1004.2mb 34f
7:00  -  mph 1004.2mb 34f
6:54  -  mph 1004.2mb 34f
6:48 6 8 mph 1004.2mb -
6:42 5 7 mph 1004.2mb -
6:36 5 8 mph 1004.2mb -
6:30  -  mph 1004.2mb 34f
6:24  -  mph 1004.2mb 34f
6:18  -  mph 1004.1mb 34f
6:12  -  mph 1004mb 35f
6:06  -  mph 1004mb 35f
6:00  -  mph 1003.9mb 35f
5:54  -  mph 1003.7mb 35f
5:48 6 8 mph - 35f
5:42 5 7 mph - 35f
5:36 5 8 mph - 35f
5:30 5 6 mph 1003.4mb -
5:24 6 8 mph 1003.4mb -
5:18  -  mph 1003.3mb 35f
5:12  -  mph 1003.2mb 35f
5:06  -  mph 1003.1mb 35f
5:00 5 7 mph - 35f
4:54 3 6 mph - 34f
4:48 3 6 mph 1002.7mb 34f
4:42 3 5 mph 1002.6mb 35f
4:36 3 5 mph 1002.5mb 35f
4:30 3 6 mph 1002.5mb 35f
4:24 3 7 mph 1002.5mb 35f
4:18 3 6 mph 1002.4mb 35f
4:12 3 6 mph 1002.4mb 35f
4:06 3 6 mph 1002.3mb 35f
4:00 2 5 mph 1002.3mb 34f
3:54 3 5 mph 1002.1mb 34f
3:48 3 6 mph 1002.1mb 34f
3:42 2 5 mph 1002mb 34f
3:36 2 3 mph 1002mb 34f
3:30 2 3 mph 1002mb 34f
3:24 2 5 mph 1001.9mb 34f
3:18 3 6 mph 1001.9mb 34f
3:12 3 5 mph 1001.8mb 33f
3:06 3 5 mph 1001.7mb 33f
3:00 3 6 mph 1001.7mb 33f
2:54 5 7 mph 1001.6mb 33f
2:48 3 5 mph 1001.5mb 33f
2:42 3 6 mph 1001.5mb 34f
2:36 2 3 mph 1001.4mb 34f
2:30 3 6 mph 1001.4mb 34f
2:24 3 5 mph 1001.4mb 34f
2:18 2 5 mph 1001.4mb 34f
2:12 3 6 mph 1001.4mb 34f
2:06 3 5 mph 1001.3mb 34f
2:00 3 6 mph 1001.3mb 34f
1:54 3 5 mph 1001.3mb 34f
1:48 2 3 mph 1001.3mb 34f
1:42 2 3 mph 1001.3mb 34f
1:36 2 3 mph 1001.3mb 34f
1:30 3 5 mph 1001.3mb 34f
1:24 2 3 mph 1001.3mb 34f
1:18 2 3 mph 1001.3mb 34f
1:12 2 3 mph 1001.4mb 34f
1:06 2 5 mph 1001.4mb 34f
1:00  -  2 mph 1001.4mb 35f
12:54 3 5 mph 1001.4mb 35f
12:48 2 3 mph 1001.5mb 34f
12:42 1 2 mph 1001.5mb 34f
12:36 2 3 mph 1001.6mb 34f
12:30 1 3 mph 1001.6mb 35f
12:24 1 3 mph 1001.6mb 36f
12:18 2 5 mph 1001.7mb 35f
12:12 2 3 mph 1001.7mb 35f
12:06 2 3 mph 1001.9mb 35f
12:00  -  1 mph 1002mb 36f
11:54 1 3 mph 1002mb 36f
11:48 1 2 mph 1002.1mb 35f
11:42  -  2 mph 1002.1mb 36f
11:36  -  2 mph 1002.2mb 35f
11:30 1 2 mph 1002.3mb 35f
11:24  -  2 mph 1002.4mb 34f
11:18 2 3 mph 1002.4mb 34f
11:12 1 2 mph 1002.5mb 33f
11:06 1 2 mph 1002.6mb 33f
11:00 2 3 mph 1002.8mb 33f
10:54  -  2 mph 1002.8mb 33f
10:48 1 3 mph 1002.9mb 33f
10:42 2 5 mph 1002.9mb 33f
10:36 2 5 mph 1003mb 33f
10:30 3 5 mph 1003.1mb 32f
10:24 3 5 mph 1003.2mb 32f
10:18 2 5 mph 1003.2mb 32f
10:12 3 5 mph 1003.2mb 32f
10:06 3 6 mph 1003.3mb 32f
10:00 3 5 mph 1003.3mb 32f
9:54 3 7 mph 1003.3mb 32f
9:48 5 7 mph 1003.4mb 32f
9:42 3 6 mph 1003.4mb 32f
9:36 3 6 mph 1003.4mb 32f
9:30 2 5 mph 1003.5mb 32f
9:24 2 3 mph 1003.5mb 32f
9:18 2 3 mph 1003.5mb 32f
9:12 3 6 mph 1003.5mb 32f
9:06 3 5 mph 1003.6mb 32f
9:00 3 6 mph 1003.6mb 32f
8:54 3 6 mph 1003.6mb 32f
8:48 3 5 mph 1003.6mb 32f
8:42 3 5 mph 1003.6mb 32f
8:36 2 5 mph 1003.6mb 32f
8:30 2 3 mph 1003.6mb 32f
8:24 1 2 mph 1003.6mb 31f
8:18  -  2 mph 1003.7mb 30f
8:12  -  2 mph 1003.7mb 30f
8:06  -  2 mph 1003.7mb 30f
8:00  -  1 mph 1003.6mb 29f
7:54  -  1 mph 1003.6mb 29f
7:48  -  1 mph 1003.6mb 29f
7:42  -  1 mph 1003.6mb 29f
7:36  -  1 mph 1003.6mb 29f
7:30  -  1 mph 1003.6mb 29f
7:24  -  1 mph 1003.6mb 28f
7:18  -  1 mph 1003.6mb 28f
7:12  -  1 mph 1003.6mb 28f
7:06  -  2 mph 1003.6mb 28f
7:00  -  2 mph 1003.6mb 28f
6:54  -  1 mph 1003.5mb 28f
6:48  -  1 mph 1003.5mb 28f
6:42  -  1 mph 1003.5mb 28f
6:36  -  1 mph 1003.5mb 28f
6:30  -  1 mph 1003.4mb 28f
6:24  -  1 mph 1003.4mb 28f
6:18  -  1 mph 1003.4mb 28f
6:12  -  mph 1003.4mb 28f
6:06  -  1 mph 1003.4mb 28f
6:00  -  1 mph 1003.3mb 28f
5:54  -  1 mph 1003.3mb 28f
5:48  -  2 mph 1003.3mb 28f
5:42 1 2 mph 1003.3mb 28f
5:36 2 3 mph 1003.3mb 28f
5:30 2
mph
1003.4mb 28f
5:24 1
mph
1003.4mb 28f
5:18  -  1 mph 1003.3mb 28f
5:12 2
mph
1003.3mb 28f
5:06 2 5 mph 1003.2mb 28f
5:00 2 3 mph 1003.2mb 28f
4:54 2
mph
1003.2mb 28f
4:48  -  mph 1003.2mb 28f
4:42  -  mph 1003.2mb 28f
4:36  -  mph 1003.2mb 28f
4:30 2 3 mph 1003.1mb 28f
4:24 2 3 mph 1003.1mb 28f
4:18 1 2 mph 1003mb 28f
4:12  -  mph 1002.9mb 27f
4:06 1
mph
1002.9mb 27f
4:00  -  1 mph 1003mb 27f
3:54  -  mph 1003.1mb 27f
3:48  -  1 mph 1003.1mb 27f
3:42 1 2 mph 1003.2mb 27f
3:36  -  2 mph 1003.2mb 27f
3:30 1
mph
1003.2mb 27f
3:24  -  1 mph 1003.2mb 27f
3:18  -  1 mph 1003.1mb 27f
3:12 1 2 mph 1003mb 28f
3:06 2 3 mph 1003mb 28f
3:00  -  2 mph 1003mb 27f
2:54 2
mph
1003mb 28f
2:48  -  1 mph 1003mb 28f
2:42  -  1 mph 1003.1mb 28f
2:36 1 2 mph 1003.1mb 28f
2:30 1 2 mph 1003.1mb 28f
2:24 1 2 mph 1003.1mb 28f
2:18 2 3 mph 1003.1mb 28f
2:12 2 3 mph 1003.3mb 28f
2:06 1 2 mph 1003.4mb 28f
2:00 1 2 mph 1003.3mb 28f
1:54 1
mph
1003.3mb 28f
1:48 2
mph
1003.2mb 28f
1:42 1 2 mph 1003.2mb 28f
1:36 1 2 mph 1003.2mb 28f
1:30 2 3 mph 1003.1mb 27f
1:24  -  1 mph 1003.2mb 28f
1:18 1 2 mph 1003.2mb 26f
1:12  -  mph 1003mb 27f
1:06  -  mph 1003mb 27f
1:00  -  1 mph 1003mb 28f
12:54 2
mph
1003mb 28f
12:48 1 2 mph 1003.1mb 27f
12:42  -  1 mph 1003.2mb 26f
12:36  -  1 mph 1003.2mb 26f
12:30 2
mph
1003.2mb 26f
12:24 1 2 mph 1003mb 27f
12:18 2
mph
1003mb 27f
12:12 2
mph
1003.2mb 27f
12:06 1 3 mph 1003.4mb 26f
12:00 2 3 mph 1003.2mb 27f
Di 02/09 11:54 1 2 mph 1003.3mb 27f
11:48 1 2 mph 1003.3mb 27f
11:42 2 3 mph 1003.3mb 27f
11:36 2 3 mph 1003.2mb 27f
11:30 2
mph
1003.3mb 28f
11:24 2
mph
1003.5mb 27f
11:18 1 2 mph 1003.5mb 28f
11:12 2
mph
1003.6mb 28f
11:06 2 3 mph 1003.6mb 28f
11:00  -  1 mph 1003.6mb 28f
10:54 2 3 mph 1003.7mb 27f
10:48 2 5 mph 1003.5mb 27f
10:42 3
mph
1003.4mb 27f
10:36 3 5 mph 1003.4mb 27f
10:30 3
mph
1003.4mb 27f
10:24 2 3 mph 1003.4mb 27f
10:18 2 3 mph 1003.4mb 27f
10:12 3
mph
1003.4mb 28f
10:06 2 3 mph 1003.5mb 28f
10:00 2 3 mph 1003.6mb 28f
9:54 2 3 mph 1003.6mb 28f
9:48  -  mph 1003.8mb 28f
9:42  -  mph 1003.8mb 28f
9:36  -  mph 1003.8mb 28f
9:30 2 3 mph 1003.9mb 28f
9:24 2 3 mph 1004mb 29f
9:18 2 3 mph 1004mb 29f
9:12 2 3 mph 1004mb 28f
9:06 3 5 mph 1004.1mb 28f
9:00 2 5 mph 1004.1mb 28f
8:54 2 3 mph 1004.1mb 28f
8:48 2 5 mph 1004.1mb -
8:42 2 3 mph 1004.1mb 28f
8:36 2 3 mph 1004.1mb 28f
8:30 2 3 mph 1004.1mb 28f
8:24 2 3 mph 1004mb 28f
8:18 2 3 mph 1004mb 28f
8:12 3 6 mph 1004mb 29f
8:06 2 5 mph 1003.9mb 29f
8:00 3 6 mph 1003.9mb 29f
7:54 3 6 mph 1003.9mb 29f
7:48  -  mph 1003.7mb 29f
7:42  -  mph 1003.7mb 29f
7:36  -  mph 1003.6mb 29f
7:30 3 7 mph 1003.4mb 29f
7:24 2 7 mph 1003.3mb 29f
7:18  -  mph 1003.2mb 30f
7:12  -  mph 1003.2mb 30f
7:06  -  mph 1003.2mb 30f
7:00  -  mph 1003.4mb 30f
6:54  -  mph 1003.3mb 30f
6:48 9 11 mph 1003.1mb 30f
6:42 7 9 mph 1003.1mb 30f
6:36 7 9 mph 1003.2mb 30f
6:30 8 10 mph 1003.3mb 30f
6:24 8 10 mph 1003.3mb 30f
6:18 7 10 mph 1003.2mb 30f
6:12 7 9 mph 1003.3mb 30f
6:06 8 10 mph 1003.3mb 30f
6:00 7 9 mph 1003.3mb 30f
5:54 7 9 mph 1003.4mb 30f
5:48 7 9 mph 1003.4mb 30f
5:42 7 9 mph 1003.4mb 30f
5:36 6 8 mph 1003.4mb 30f
5:30 7 9 mph 1003.3mb 30f
5:24 7 9 mph 1003.3mb 30f
5:18 6 8 mph 1003.1mb 30f
5:12 5 7 mph 1003.1mb 30f
5:06 3 6 mph 1003.2mb 30f
5:00 3 6 mph 1003.1mb 30f
4:54 6 9 mph 1002.8mb 30f
4:48 7 8 mph 1002.7mb 31f
4:42 6 9 mph 1002.6mb 30f
4:36 7 10 mph 1002.5mb 30f
4:30 7 9 mph 1002.5mb 30f
4:24 8 10 mph 1002.5mb 30f
4:18 8 10 mph 1002.5mb 30f
4:12 8 9 mph 1002.5mb 30f
4:06 9 11 mph 1002.4mb 30f
4:00 9 11 mph 1002.4mb 31f
3:54 7 10 mph 1002.4mb 31f
3:48 9 13 mph 1002.3mb 31f
3:42 9 11 mph 1002.3mb 31f
3:36 8 10 mph 1002.2mb 31f
3:30 9 11 mph 1002mb 32f
3:24 7 11 mph 1002mb 32f
3:18 8 11 mph 1002mb 32f
3:12 7 9 mph 1002mb 32f
3:06 8 10 mph 1002mb 31f
3:00 8 10 mph 1002mb 31f
2:54 9 13 mph 1001.9mb 31f
2:48 8 11 mph 1001.8mb 31f
2:42 8 10 mph 1002mb 31f
2:36 7 10 mph 1002.1mb 31f
2:30 8 11 mph 1002.1mb 31f
2:24 10 13 mph 1002mb 31f
2:18 7 11 mph 1002.1mb 31f
2:12 7 11 mph 1002.2mb 31f
2:06 7 13 mph 1002.1mb 31f
2:00 7 10 mph 1002.2mb 31f
1:54 7 11 mph 1002.2mb 31f
1:48 8 13 mph 1002.2mb 31f
1:42 9 13 mph 1002.2mb 31f
1:36 7 11 mph 1002.3mb 31f
1:30 6 9 mph 1002.4mb 31f
1:24 9 13 mph 1002.3mb 31f
1:18 8 13 mph 1002.3mb 31f
1:12 9 11 mph 1002.2mb 31f
1:06 8 11 mph 1002.3mb 31f
1:00 9 13 mph 1002.4mb 30f
12:54 10 14 mph 1002.5mb 30f
12:48 9 13 mph 1002.7mb 30f
12:42 10 14 mph 1002.7mb 30f
12:36 8 13 mph 1002.6mb 30f
12:30 9 14 mph 1002.9mb 30f
12:24 9 13 mph 1003mb 30f
12:18 9 13 mph 1003.3mb 29f
12:12 10 13 mph 1003.2mb 29f
12:06 10 14 mph 1003.3mb 30f
12:00 9 14 mph 1003.5mb 29f
11:54 10 13 mph 1003.5mb 29f
11:48 9 13 mph 1003.5mb 29f
11:42 10 14 mph 1003.8mb 28f
11:36 9 14 mph 1003.8mb 28f
11:30 11 14 mph 1003.9mb 28f
11:24 10 14 mph 1004.1mb 28f
11:18 10 13 mph 1004.3mb 27f
11:12 10 14 mph 1004.1mb 27f
11:06 10 15 mph 1004mb 27f
11:00 10 15 mph 1004mb 27f
10:54 9 13 mph 1004.6mb 26f
10:48 9 11 mph 1004.6mb 26f
10:42 10 13 mph 1004.7mb 26f
10:36 9 11 mph 1004.7mb 26f
10:30 10 15 mph 1005mb 26f
10:24 10 14 mph 1005.3mb 25f
10:18 9 13 mph 1005.5mb 25f
10:12 9 11 mph 1005.7mb 25f
10:06 9 14 mph 1005.8mb 25f
10:00 10 14 mph 1005.8mb 24f
9:54 9 15 mph 1006mb 25f
9:48 10 13 mph 1006mb 25f
9:42 9 14 mph 1006mb 24f
9:36 9 15 mph 1006.2mb 24f
9:30 8 11 mph 1006.1mb 24f
9:24 10 14 mph 1005.9mb 24f
9:18 10 14 mph 1005.8mb 24f
9:12 8 14 mph 1006mb 24f
9:06 10 14 mph 1006.2mb 24f
9:00 9 11 mph 1006.4mb 24f
8:54 10 14 mph 1006.3mb 23f
8:48 9 13 mph 1006.2mb 23f
8:42 9 13 mph 1006.3mb 23f
8:36 10 14 mph 1006.2mb 23f
8:30 10 14 mph 1006.4mb 23f
8:24 10 13 mph 1006.6mb 23f
8:18 9 14 mph 1006.6mb 23f
8:12 9 13 mph 1006.8mb 23f
8:06 9 11 mph 1006.9mb 23f
8:00 7 10 mph 1007mb 23f
7:54 8 11 mph 1007mb 23f
7:48 6 8 mph 1007.3mb 23f
7:42 6 9 mph 1007.2mb 23f
7:36 7 9 mph 1007.2mb 23f
7:30 7 9 mph 1007mb 23f
7:24 7 9 mph 1007.1mb 23f
7:18 7 10 mph 1007.2mb 23f
7:12 7 9 mph 1007.2mb 22f
7:06 7 11 mph 1007.2mb 22f
7:00 5 7 mph 1007.4mb 22f
6:54 5 7 mph 1007.2mb 22f
6:48 7 9 mph 1006.8mb 23f
6:42 7 10 mph 1006.5mb 23f
6:36 7 10 mph 1006.5mb 23f
6:30 8 10 mph 1006.3mb 23f
6:24 3 7 mph 1006.4mb 22f
6:18 11 17 mph 1005.6mb 22f
6:12 14 20 mph 1005.2mb 23f
6:06 14 18 mph 1005.2mb 23f
6:00 16 22 mph 1004.8mb 23f
5:54 17 21 mph 1004.5mb 23f
5:48 21 26 mph 1004.5mb 23f
5:42 17 23 mph 1005.1mb 23f
5:36 17 22 mph 1005.1mb 23f
5:30 15 21 mph 1005.9mb 23f
5:24 15 20 mph 1006.3mb 22f
5:18 14 18 mph 1006.6mb 23f
5:12 13 17 mph 1006.6mb 23f
5:06 13 18 mph 1006.9mb 23f
5:00 11 15 mph 1007mb 23f
4:54 10 13 mph 1007.3mb 23f
4:48  -  mph 1007.4mb 23f
4:42  -  mph 1007.4mb 23f
4:36  -  mph 1007.3mb 23f
4:30 9 13 mph 1007.3mb 23f
4:24 10 14 mph 1007.2mb 23f
4:18 11 16 mph 1007.2mb 23f
4:12 10 14 mph 1007mb 23f
4:06 14 18 mph 1007mb 23f
4:00 11 16 mph 1006.9mb 23f
3:54 13 18 mph 1006.8mb 23f
3:48 13 17 mph 1006.7mb 23f
3:42 14 17 mph 1006.8mb 23f
3:36 13 17 mph 1007.1mb 23f
3:30 13 17 mph 1007mb 23f
3:24 15 20 mph 1007.1mb 23f
3:18 13 17 mph 1007.1mb 23f
3:12 14 18 mph 1007.3mb 23f
3:06 14 17 mph 1007.5mb 23f
3:00 14 18 mph 1007.6mb 23f
2:54 14 17 mph 1007.5mb 23f
2:48 15 20 mph 1007.7mb 23f
2:42 14 20 mph 1007.8mb 23f
2:36 15 21 mph 1007.9mb 23f
2:30 15 20 mph 1007.9mb 23f
2:24 15 20 mph 1008mb 23f
2:18 13 15 mph 1008mb 23f
2:12 13 20 mph 1008.1mb 23f
2:06 11 15 mph 1008.3mb 23f
2:00 11 16 mph 1008.3mb 23f
1:54 13 17 mph 1008.4mb 23f
1:48 13 17 mph 1008.3mb 23f
1:42 13 17 mph 1008.3mb 23f
1:36 9 14 mph 1008.3mb 23f
1:30 11 17 mph 1008.2mb 23f
1:24 13 16 mph 1008.2mb 23f
1:18 13 20 mph 1008.2mb 23f
1:12 11 16 mph 1008.1mb 24f
1:06 15 20 mph 1008.1mb 24f
1:00 15 22 mph 1008.1mb 24f
12:54 15 22 mph 1008.1mb 23f
12:48 16 23 mph 1008.1mb 23f
12:42 16 21 mph 1008.2mb 23f
12:36 13 20 mph 1008.2mb 23f
12:30 16 21 mph 1008.2mb 23f
12:24 15 22 mph 1008.2mb 23f
12:18 14 20 mph 1008.4mb 23f
12:12 13 20 mph 1008.4mb 23f
12:06 14 21 mph 1008.4mb 23f
12:00 16 23 mph 1008.5mb 23f
Mo 02/08 11:54 14 18 mph 1008.5mb 23f
11:48 15 21 mph 1008.5mb 23f
11:42 13 18 mph 1008.6mb 23f
11:36 17 26 mph 1008.6mb 23f
11:30 17 25 mph 1008.6mb 23f
11:24 17 22 mph 1008.7mb 23f
11:18 15 23 mph 1008.7mb 23f
11:12 16 24 mph 1008.8mb 23f
11:06 18 24 mph 1008.9mb 23f
11:00 16 23 mph 1008.9mb 23f
10:54 18 26 mph 1008.9mb 23f
10:48 14 20 mph 1009mb 22f
10:42 17 25 mph 1009.1mb 23f
10:36 15 22 mph 1009mb 23f
10:30 20 25 mph 1009mb 22f
10:24 16 22 mph 1009mb 22f
10:18 16 25 mph 1009mb 22f
10:12 14 20 mph 1009mb 22f
10:06 17 23 mph 1009mb 22f
10:00 16 23 mph 1008.9mb 23f
9:54 18 28 mph 1008.8mb 23f
9:48 17 22 mph 1008.8mb 22f
9:42 17 25 mph 1008.8mb 23f
9:36 18 24 mph 1008.7mb 22f
9:30 20 25 mph 1008.7mb 22f
9:24 16 22 mph 1008.8mb 23f
9:18 20 28 mph 1008.6mb 23f
9:12 21 26 mph 1008.6mb 23f
9:06 17 23 mph 1008.8mb 23f
9:00 17 25 mph 1008.9mb 23f
8:54 16 25 mph 1009mb 23f
8:48  -  mph 1009mb 23f
8:42  -  mph 1009.1mb 23f
8:36  -  mph 1009.1mb 23f
8:30  -  mph 1009mb 23f
8:24  -  mph 1008.7mb 23f
8:18  -  mph 1008.6mb 23f
8:12  -  mph 1008.5mb 23f
8:06  -  mph 1008.5mb 23f
8:00 18 24 mph 1008.3mb 23f
7:54 17 30 mph 1008.5mb 23f
7:48 21 28 mph 1008.4mb 23f
7:42 18 26 mph 1008.5mb 23f
7:36 21 30 mph 1008.5mb 23f
7:30 21 26 mph 1008.4mb 23f
7:24 20 25 mph 1008.5mb 23f
7:18 17 24 mph 1008.5mb 23f
7:12 20 31 mph 1008.4mb 23f
7:06 17 25 mph 1008.4mb 23f
7:00 22 31 mph 1008.3mb 23f
6:54 20 28 mph 1008.3mb 23f
6:48 17 28 mph 1008.3mb -
6:42 16 25 mph 1008.1mb -
6:36 17 26 mph 1008mb -
6:30 18 28 mph 1008mb 23f
6:24 17 24 mph 1007.8mb 23f
6:18 18 24 mph 1007.6mb 23f
6:12 21 30 mph 1007.7mb 23f
6:06 20 29 mph 1007.7mb 23f
6:00 20 26 mph 1007.4mb 23f
5:54 20 28 mph 1007.3mb 23f
5:48 18 28 mph 1007.2mb 23f
5:42 21 29 mph 1007.2mb 23f
5:36 17 26 mph 1007.2mb 24f
5:30 22 31 mph 1007.2mb 23f
5:24 20 30 mph 1007.1mb 23f
5:18 20 29 mph 1007mb 23f
5:12 21 31 mph 1006.8mb 23f
5:06 20 29 mph 1006.7mb 23f
5:00 21 30 mph 1006.7mb 23f
4:54 21 31 mph 1006.4mb 23f
4:48  -  mph 1006.4mb 23f
4:42  -  mph 1006.3mb 23f
4:36  -  mph 1006.2mb 23f
4:30 20 32 mph 1006.2mb 23f
4:24 22 31 mph 1006.2mb 23f
4:18 18 29 mph 1005.9mb 22f
4:12 22 31 mph 1005.8mb 22f
4:06 23 33 mph 1005.7mb 22f
4:00 23 36 mph 1005.5mb 22f
3:54 22 29 mph 1005.5mb 22f
3:48 22 31 mph 1005.4mb 22f
3:42 22 30 mph 1005.3mb 23f
3:36 21 29 mph 1005.3mb 22f
3:30 23 31 mph 1005.3mb 22f
3:24 21 31 mph 1005.1mb 23f
3:18 22 31 mph 1005mb 22f
3:12 21 32 mph 1005mb 22f
3:06 21 29 mph 1004.8mb 23f
3:00 21 32 mph 1004.8mb 23f
2:54 23 33 mph 1004.7mb 23f
2:48 23 33 mph 1004.7mb 22f
2:42 22 34 mph 1004.8mb 23f
2:36 23 32 mph 1004.8mb 23f
2:30 20 28 mph 1004.9mb 23f
2:24 23 32 mph 1004.9mb 23f
2:18 24 33 mph 1004.9mb 23f
2:12 21 32 mph 1004.8mb 22f
2:06 22 31 mph 1004.7mb 23f
2:00 23 31 mph 1004.7mb 23f
1:54 24 36 mph 1004.8mb 22f
1:48 23 34 mph 1004.7mb 23f
1:42 22 31 mph 1004.8mb 23f
1:36 23 33 mph 1004.8mb 22f
1:30 23 33 mph 1004.9mb 22f
1:24 24 36 mph 1004.9mb 22f
1:18 26 37 mph 1005mb 22f
1:12 26 38 mph 1005.1mb 22f
1:06 25 34 mph 1005.1mb 22f
1:00 25 33 mph 1005.3mb 22f
12:54 24 31 mph 1005.3mb 22f
12:48 24 34 mph 1005.5mb 22f
12:42 21 31 mph 1005.8mb 22f
12:36 24 33 mph 1006mb 22f
12:30 20 25 mph 1006.2mb 23f
12:24 25 36 mph 1006.3mb 22f
12:18 24 31 mph 1006.3mb 22f
12:12 22 28 mph 1006.6mb 22f
12:06 28 36 mph 1006.6mb 23f
12:00 25 34 mph 1006.6mb 23f
11:54 28 33 mph 1006.8mb 23f
11:48 29 40 mph 1006.8mb 23f
11:42 25 33 mph 1007mb 23f
11:36 24 34 mph 1007.2mb 23f
11:30 25 36 mph 1007.4mb 23f
11:24 23 32 mph 1007.5mb 23f
11:18 24 31 mph 1007.6mb 23f
11:12 23 29 mph 1007.8mb 24f
11:06 25 36 mph 1007.8mb 23f
11:00 25 34 mph 1008mb 24f
10:54 26 37 mph 1008.1mb 24f
10:48 22 29 mph 1008.1mb 24f
10:42 23 32 mph 1008.3mb 24f
10:36 21 28 mph 1008.5mb 25f
10:30 22 31 mph 1008.5mb 25f
10:24 23 34 mph 1008.7mb 25f
10:18 23 31 mph 1008.8mb 26f
10:12 21 30 mph 1008.8mb 26f
10:06 21 30 mph 1008.7mb 26f
10:00 20 30 mph 1008.7mb 26f
9:54 21 29 mph 1008.7mb 26f
9:48 20 28 mph 1008.6mb 27f
9:42 18 30 mph 1008.5mb 28f
9:36 21 26 mph 1008.4mb 29f
9:30 22 29 mph 1008.4mb 29f
9:24 21 30 mph 1008.4mb 29f
9:18 20 25 mph 1008.4mb 29f
9:12 18 24 mph 1008.4mb 30f
9:06 16 23 mph 1008.4mb 30f
9:00 20 25 mph 1008.4mb 31f
8:54 22 30 mph 1008.5mb 31f
8:48 25 32 mph 1008.5mb 31f
8:42 25 34 mph 1008.4mb 31f
8:36 25 31 mph 1008.4mb 31f
8:30 25 33 mph 1008.4mb 31f
8:24 26 38 mph 1008.3mb 31f
8:18 24 31 mph 1008.3mb 32f
8:12 26 34 mph 1008.4mb 32f
8:06 26 32 mph 1008.5mb 31f
8:00 24 33 mph 1008.6mb 32f
7:54 25 33 mph 1008.7mb 32f
7:48 26 33 mph 1008.9mb 32f
7:42 22 30 mph 1008.9mb 32f
7:36 26 31 mph 1008.9mb 32f
7:30 24 33 mph 1009mb 33f
7:24 28 33 mph 1008.9mb 33f
7:18 23 34 mph 1008.9mb 33f
7:12 26 33 mph 1008.8mb 33f
7:06 26 32 mph 1008.8mb 33f
7:00 31 38 mph 1008.6mb 34f
6:54 26 36 mph 1008.6mb 34f
6:48 28 36 mph 1008.5mb 35f
6:42 28 37 mph 1008.6mb 35f
6:36 29 38 mph 1008.7mb 35f
6:30 28 36 mph 1008.7mb 35f
6:24 28 38 mph 1008.7mb 35f
6:18 31 38 mph 1008.8mb 35f
6:12 29 40 mph 1008.9mb 35f
6:06 30 40 mph 1008.9mb 35f
6:00 28 34 mph 1008.8mb 35f
5:54 28 41 mph 1008.8mb 35f
5:48 32 41 mph 1008.9mb 35f
5:42 24 34 mph 1009mb 36f
5:36 31 40 mph 1009mb 36f
5:30 28 36 mph 1009mb 36f
5:24 29 41 mph 1009mb 36f
5:18 24 37 mph 1009mb 36f
5:12 32 46 mph 1008.7mb 36f
5:06 32 45 mph 1008.6mb 36f
5:00 28 36 mph 1008.5mb 36f
4:54 28 44 mph 1008.4mb 36f
4:48  -  mph 1008.3mb 37f
4:42  -  mph 1008.1mb 37f
4:36  -  mph 1008.2mb 37f
4:30 32 41 mph 1008.2mb 37f
4:24 26 32 mph 1008.4mb 37f
4:18 26 40 mph 1008.6mb 37f
4:12 29 38 mph 1008.8mb 37f
4:06 29 39 mph 1008.9mb 37f
4:00 29 46 mph 1009mb 37f
3:54 30 40 mph 1009mb 38f
3:48 26 37 mph 1009.2mb 38f
3:42 30 39 mph 1009.2mb 38f
3:36 24 32 mph 1009.4mb 38f
3:30 25 33 mph 1009.4mb 38f
3:24 26 37 mph 1009.6mb 38f
3:18 25 33 mph 1009.6mb 38f
3:12 26 38 mph 1009.6mb 38f
3:06 25 33 mph 1009.6mb 38f
3:00 25 36 mph 1009.7mb 38f
2:54 26 33 mph 1010mb 38f
2:48 24 36 mph 1010.3mb 39f
2:42 23 30 mph 1010.6mb 39f
2:36 22 31 mph 1010.8mb 39f
2:30 23 31 mph 1011mb 39f
2:24 26 36 mph 1011.2mb 39f
2:18 21 29 mph 1011.3mb 39f
2:12 22 32 mph 1011.4mb 39f
2:06 22 28 mph 1011.5mb 39f
2:00 23 30 mph 1011.5mb 39f
1:54 22 28 mph 1011.7mb 39f
1:48 21 29 mph 1011.9mb 39f
1:42 22 28 mph 1011.9mb 39f
1:36 23 31 mph 1011.9mb 39f
1:30 21 28 mph 1012mb 39f
1:24 20 26 mph 1012.1mb 39f
1:18 20 25 mph 1012.3mb 39f
1:12 17 24 mph 1012.4mb 39f
1:06 18 25 mph 1012.6mb 38f
1:00 16 22 mph 1012.9mb 38f
12:54 15 20 mph 1013.1mb 38f
12:48 16 20 mph 1013.3mb 38f
12:42 17 23 mph 1013.4mb 38f
12:36 16 21 mph 1013.5mb 38f
12:30 17 21 mph 1013.7mb 38f
12:24 16 22 mph 1014mb 38f
12:18 16 22 mph 1014.2mb 38f
12:12 16 22 mph 1014.5mb 38f
12:06 16 21 mph 1014.8mb 38f
12:00 16 20 mph 1015mb 37f
So 02/07 11:54 16 20 mph 1015.3mb 38f
11:48 15 21 mph 1015.5mb 38f
11:42 15 20 mph 1015.7mb 38f
11:36 15 18 mph 1015.9mb 37f
11:30 14 18 mph 1015.9mb 37f
11:24 14 17 mph 1016mb 37f
11:18 13 16 mph 1016.2mb 37f
11:12 13 16 mph 1016.1mb 37f
11:06 13 16 mph 1016.1mb 37f
11:00 13 16 mph 1016.2mb 37f
10:54 13 17 mph 1016.3mb 37f
10:48 13 16 mph 1016.3mb 37f
10:42 13 16 mph 1016.4mb 37f
10:36 14 16 mph 1016.5mb 37f
10:30 13 16 mph 1016.6mb 37f
10:24 13 16 mph 1016.7mb 37f
10:18 13 15 mph 1016.8mb 37f
10:12 11 14 mph 1016.9mb 38f
10:06 13 18 mph 1016.9mb 38f
10:00 13 18 mph 1016.9mb 38f
9:54 11 15 mph 1016.9mb 38f
9:48 11 15 mph 1017.1mb 38f
9:42 13 17 mph 1017.2mb 38f
9:36 11 15 mph 1017.3mb 37f
9:30 11 17 mph 1017.6mb 37f
9:24 11 14 mph 1017.6mb 37f
9:18 11 14 mph 1017.6mb 37f
9:12 13 16 mph 1017.5mb 37f
9:06 14 17 mph 1017.5mb 37f
9:00  -  mph 1017.5mb 37f
8:54  -  mph 1017.6mb 37f
8:48  -  mph 1017.8mb 37f
8:42  -  mph 1018mb 37f
8:36  -  mph 1018.3mb 37f
8:30 15 22 mph 1018.6mb 38f
8:24 15 20 mph 1018.7mb 38f
8:18  -  mph 1018.8mb 38f
8:12  -  mph 1018.8mb 38f
8:06  -  mph 1018.8mb 38f
8:00  -  mph 1018.8mb 38f
7:54  -  mph 1019mb 38f
7:48  -  mph 1019mb 38f
7:42  -  mph 1019mb 38f
7:36  -  mph 1019.2mb 38f
7:30 13 16 mph 1019.3mb 38f
7:24 11 15 mph 1019.4mb 38f
7:18 11 16 mph - -
7:12 11 16 mph 1019.2mb 38f
7:06 11 15 mph 1019.2mb 38f
7:00 10 13 mph 1019.2mb 39f
6:54 11 17 mph 1019.2mb 39f
6:48 13 17 mph 1019.3mb -
6:42 10 14 mph 1019.3mb -
6:36 13 17 mph 1019.3mb -
6:30 13 16 mph 1019.3mb 39f
6:24 10 15 mph 1019.2mb 39f
6:18  -  mph 1019.2mb 39f
6:12  -  mph 1019.2mb 39f
6:06  -  mph 1019.3mb 40f
6:00 8 11 mph 1019.5mb 40f
5:54 6 8 mph 1019.5mb 40f
5:48 5 7 mph 1019.6mb -
5:42 6 8 mph 1019.6mb 39f
5:36 6 7 mph 1019.3mb 39f
5:30 6 7 mph 1019.3mb 39f
5:24 5 7 mph 1019.5mb 38f
5:18 6
mph
1019.5mb 38f
5:12 5 6 mph 1019.5mb 37f
5:06 2 3 mph 1019.5mb 38f
5:00 2 3 mph 1019.6mb 39f
4:54 2
mph
1019.6mb 39f
4:48  -  mph 1019.6mb 39f
4:42  -  mph 1019.5mb 39f
4:36  -  mph 1019.5mb 39f
4:30 1 2 mph 1019.3mb 40f
4:24 1 2 mph 1019.2mb 40f
4:18 1 2 mph 1019.2mb 40f
4:12  -  mph 1019.5mb 41f
4:06  -  1 mph 1019.5mb 41f
4:00 1 2 mph 1019.4mb 41f
3:54  -  1 mph 1019.3mb 41f
3:48 1 2 mph 1019.3mb 41f
3:42 1 2 mph 1019.5mb 41f
3:36 3 5 mph 1019.7mb 41f
3:30 3 5 mph 1019.9mb 41f
3:24 3 5 mph 1019.9mb 40f
3:18 2 5 mph 1020.1mb 40f
3:12 3 6 mph 1020.3mb 41f
3:06 3 6 mph 1020.3mb 41f
3:00 5 8 mph 1020.3mb 42f
2:54 3 6 mph 1020.2mb 42f
2:48 3 6 mph 1020.3mb 42f
2:42 3 5 mph 1020.3mb 42f
2:36 2 5 mph 1020.3mb 43f
2:30 2 3 mph 1020.4mb 43f
2:24 3 6 mph 1020.4mb 43f
2:18 3 7 mph 1020.8mb 43f
2:12 3 6 mph 1020.8mb 43f
2:06 3 6 mph 1020.8mb 43f
2:00 5 8 mph 1020.9mb 43f
1:54 5 7 mph 1021.1mb 43f
1:48 6 10 mph 1021.2mb 42f
1:42 5 9 mph 1021.2mb 42f
1:36 5 8 mph 1021.2mb 41f
1:30 5 10 mph 1021.3mb 41f
1:24 6 10 mph 1021.5mb 41f
1:18 6 10 mph 1021.6mb 42f
1:12 7 11 mph 1021.7mb 41f
1:06 5 9 mph 1021.7mb 42f
1:00 5 7 mph 1021.7mb 41f
12:54 5 8 mph 1021.7mb 41f
12:48 5 7 mph 1021.8mb 41f
12:42 3 5 mph 1022mb 42f
12:36 1 5 mph 1022.1mb 43f
12:30 1 2 mph 1021.8mb 42f
12:24 1 3 mph 1021.7mb 41f
12:18 2 3 mph 1021.7mb 41f
12:12 2
mph
1021.4mb 40f
12:06 2 3 mph 1021.2mb 41f
12:00 2 5 mph 1021.1mb 41f
11:54 2 3 mph 1021.1mb 40f
11:48 3 5 mph 1021.2mb 40f
11:42 3 6 mph 1021.2mb 40f
11:36 5 6 mph 1021.1mb 39f
11:30 5 6 mph 1021mb 39f
11:24 6 7 mph 1020.9mb 38f
11:18 6 7 mph 1021.3mb 38f
11:12 5 7 mph 1021.4mb 37f
11:06 2 5 mph 1021.6mb 39f
11:00 1 2 mph 1022mb 38f
10:54 3 5 mph 1021.8mb 38f
10:48 1 2 mph 1022mb 38f
10:42 2 3 mph 1022.2mb 38f
10:36 1 2 mph 1022mb 37f
10:30 3
mph
1022mb 37f
10:24 2 3 mph 1022.4mb 38f
10:18 1 3 mph 1022.8mb 38f
10:12  -  2 mph 1022.6mb 38f
10:06 2 3 mph 1022.7mb 38f
10:00 5 6 mph 1022.6mb 37f